Time;durP1;ratioP1;P1;durP2;ratioP2;P2;SDS_P1;SDS_P2;PMS_P1;PMS_P2;Temp;Humidity;BMP_temperature;BMP_pressure;BME280_temperature;BME280_humidity;BME280_pressure;Samples;Min_cycle;Max_cycle;Signal;HPM_P1;HPM_P2
2021/05/26 00:01:04;;;;;;;11.60;10.40;;;8.40;99.90;;;;;;6308868;22;20454;-63
2021/05/26 00:03:31;;;;;;;13.60;10.60;;;8.40;99.90;;;;;;6304932;22;20425;-63
2021/05/26 00:06:00;;;;;;;11.47;9.23;;;8.30;99.90;;;;;;6309646;22;20753;-63
2021/05/26 00:08:29;;;;;;;10.70;9.63;;;8.30;99.90;;;;;;6309372;22;20420;-63
2021/05/26 00:10:57;;;;;;;9.50;8.40;;;8.30;99.90;;;;;;6309389;22;20416;-63
2021/05/26 00:13:24;;;;;;;11.60;8.80;;;8.30;99.90;;;;;;6309446;22;20448;-63
2021/05/26 00:15:52;;;;;;;11.33;8.53;;;8.40;99.90;;;;;;6311380;22;20768;-63
2021/05/26 00:18:18;;;;;;;9.67;8.67;;;8.40;99.90;;;;;;6311000;22;20449;-63
2021/05/26 00:20:46;;;;;;;17.73;13.40;;;8.30;99.90;;;;;;6311239;22;20429;-63
2021/05/26 00:23:13;;;;;;;11.27;9.60;;;8.30;99.90;;;;;;6311111;22;20486;-63
2021/05/26 00:25:40;;;;;;;11.93;9.50;;;8.30;99.90;;;;;;6311546;22;20848;-63
2021/05/26 00:28:07;;;;;;;9.03;8.10;;;8.30;99.90;;;;;;6311675;22;20394;-63
2021/05/26 00:30:37;;;;;;;9.17;7.90;;;8.30;99.90;;;;;;6310616;22;20434;-63
2021/05/26 00:33:04;;;;;;;9.50;8.43;;;8.30;99.90;;;;;;6311402;22;20424;-63
2021/05/26 00:35:30;;;;;;;9.07;7.93;;;8.40;99.90;;;;;;6311323;22;20892;-63
2021/05/26 00:37:57;;;;;;;12.20;9.37;;;8.40;99.90;;;;;;6311488;22;20424;-63
2021/05/26 00:40:27;;;;;;;8.80;8.00;;;8.40;99.90;;;;;;6310732;22;20416;-63
2021/05/26 00:42:54;;;;;;;10.23;8.00;;;8.40;99.90;;;;;;6311031;22;20428;-63
2021/05/26 00:45:21;;;;;;;7.70;7.00;;;8.40;99.90;;;;;;6310762;22;20427;-63
2021/05/26 00:47:51;;;;;;;8.50;6.97;;;8.40;99.90;;;;;;6311491;22;20396;-63
2021/05/26 00:50:21;;;;;;;9.13;7.80;;;8.40;99.90;;;;;;6310737;22;20440;-63
2021/05/26 00:52:48;;;;;;;9.97;7.10;;;8.50;99.90;;;;;;6311096;22;20751;-63
2021/05/26 00:55:16;;;;;;;10.27;6.70;;;8.50;99.90;;;;;;6311153;22;20455;-63
2021/05/26 00:57:43;;;;;;;7.47;6.77;;;8.50;99.90;;;;;;6311720;22;20709;-63
2021/05/26 01:00:13;;;;;;;8.93;6.73;;;8.50;99.90;;;;;;6310296;22;20469;-63
2021/05/26 01:02:40;;;;;;;8.43;7.40;;;8.40;99.90;;;;;;6311501;22;20470;-64
2021/05/26 01:05:08;;;;;;;9.83;6.60;;;8.40;99.90;;;;;;6310873;22;20416;-64
2021/05/26 01:07:35;;;;;;;8.37;7.10;;;8.50;99.90;;;;;;6310356;22;20852;-64
2021/05/26 01:10:02;;;;;;;11.17;7.23;;;8.50;99.90;;;;;;6306758;22;20478;-64
2021/05/26 01:12:29;;;;;;;14.23;7.90;;;8.40;99.90;;;;;;6310778;22;20416;-64
2021/05/26 01:14:55;;;;;;;7.03;6.03;;;8.50;99.90;;;;;;6310226;22;20505;-63
2021/05/26 01:54:43;;;;;;;9.70;7.70;;;8.40;99.90;;;;;;6296459;22;20754;-62
2021/05/26 01:57:11;;;;;;;12.17;7.70;;;8.40;99.90;;;;;;6279506;22;20398;-62
2021/05/26 01:59:38;;;;;;;11.90;7.93;;;8.40;99.90;;;;;;6278834;22;20421;-62
2021/05/26 02:02:04;;;;;;;12.10;7.87;;;8.50;99.90;;;;;;6279317;22;20396;-62
2021/05/26 02:04:31;;;;;;;9.13;8.13;;;8.50;99.90;;;;;;6275218;22;20408;-62
2021/05/26 02:07:02;;;;;;;10.67;7.70;;;8.50;99.90;;;;;;6278916;22;20417;-62
2021/05/26 02:09:29;;;;;;;10.37;8.20;;;8.50;99.90;;;;;;6278743;22;20424;-62
2021/05/26 02:14:41;;;;;;;11.93;8.30;;;8.50;99.90;;;;;;6278875;22;20440;-62
2021/05/26 02:17:08;;;;;;;14.33;8.60;;;8.50;99.90;;;;;;6310477;22;20884;-62
2021/05/26 02:19:34;;;;;;;14.33;8.87;;;8.50;99.90;;;;;;6309739;22;20390;-62
2021/05/26 02:22:01;;;;;;;14.00;8.50;;;8.60;99.90;;;;;;6310289;22;20422;-62
2021/05/26 02:24:27;;;;;;;11.70;8.73;;;8.50;99.90;;;;;;6310345;22;20391;-62
2021/05/26 02:26:54;;;;;;;13.63;9.87;;;8.60;99.90;;;;;;6309808;22;20453;-62
2021/05/26 02:29:21;;;;;;;10.70;8.50;;;8.60;99.90;;;;;;6309350;22;20454;-62
2021/05/26 02:31:48;;;;;;;14.63;9.97;;;8.60;99.90;;;;;;6310030;22;20856;-62
2021/05/26 02:34:14;;;;;;;13.67;9.03;;;8.60;99.90;;;;;;6309975;22;20448;-62
2021/05/26 02:36:41;;;;;;;15.37;9.37;;;8.50;99.90;;;;;;6309487;22;20424;-62
2021/05/26 02:39:08;;;;;;;14.53;9.73;;;8.50;99.90;;;;;;6310650;22;20832;-62
2021/05/26 02:41:35;;;;;;;14.83;10.53;;;8.60;99.90;;;;;;6309867;22;20428;-62
2021/05/26 02:44:01;;;;;;;14.90;9.60;;;8.60;99.90;;;;;;6309930;22;20423;-62
2021/05/26 02:46:29;;;;;;;16.50;10.40;;;8.50;99.90;;;;;;6309309;22;20395;-62
2021/05/26 02:48:55;;;;;;;12.80;10.03;;;8.50;99.90;;;;;;6310279;22;20845;-62
2021/05/26 02:51:22;;;;;;;18.83;9.93;;;8.60;99.90;;;;;;6309608;22;20416;-62
2021/05/26 02:53:49;;;;;;;10.93;9.87;;;8.50;99.90;;;;;;6309870;22;20845;-62
2021/05/26 02:56:16;;;;;;;17.20;10.63;;;8.60;99.90;;;;;;6310208;22;20444;-62
2021/05/26 02:58:42;;;;;;;13.93;11.13;;;8.60;99.90;;;;;;6310029;22;20778;-62
2021/05/26 03:01:09;;;;;;;16.27;11.67;;;8.60;99.90;;;;;;6310702;22;20391;-62
2021/05/26 03:03:39;;;;;;;12.57;10.80;;;8.60;99.90;;;;;;6305649;22;20853;-62
2021/05/26 03:06:06;;;;;;;19.63;10.80;;;8.60;99.90;;;;;;6309360;22;20417;-62
2021/05/26 03:08:32;;;;;;;16.50;10.90;;;8.60;99.90;;;;;;6310577;22;20419;-62
2021/05/26 03:10:59;;;;;;;19.57;12.20;;;8.70;99.90;;;;;;6309968;22;20391;-62
2021/05/26 03:13:27;;;;;;;17.30;12.50;;;8.60;99.90;;;;;;6309437;22;20415;-62
2021/05/26 03:15:54;;;;;;;17.03;12.57;;;8.60;99.90;;;;;;6309199;22;20506;-62
2021/05/26 03:18:21;;;;;;;14.90;13.30;;;8.60;99.90;;;;;;6309950;22;20522;-62
2021/05/26 03:20:49;;;;;;;18.27;13.17;;;8.60;99.90;;;;;;6310019;22;20391;-62
2021/05/26 03:23:17;;;;;;;15.70;12.70;;;8.60;99.90;;;;;;6309505;22;20391;-62
2021/05/26 03:25:47;;;;;;;17.93;13.43;;;8.60;99.90;;;;;;6309132;22;20469;-62
2021/05/26 03:28:13;;;;;;;18.33;12.30;;;8.70;99.90;;;;;;6310387;22;20713;-64
2021/05/26 03:30:40;;;;;;;16.27;11.37;;;8.70;99.90;;;;;;6309272;22;20420;-64
2021/05/26 03:33:08;;;;;;;18.80;11.50;;;8.60;99.90;;;;;;6308950;22;20738;-64
2021/05/26 03:35:35;;;;;;;14.23;10.70;;;8.60;99.90;;;;;;6309279;22;20452;-64
2021/05/26 03:38:02;;;;;;;15.63;9.50;;;8.70;99.90;;;;;;6309641;22;20452;-64
2021/05/26 03:40:29;;;;;;;15.40;10.67;;;8.70;99.90;;;;;;6309518;22;20451;-64
2021/05/26 03:42:55;;;;;;;12.20;10.80;;;8.70;99.90;;;;;;6309586;22;20875;-64
2021/05/26 03:45:22;;;;;;;14.80;11.03;;;8.70;99.90;;;;;;6309312;22;20703;-64
2021/05/26 03:47:49;;;;;;;12.17;9.77;;;8.70;99.90;;;;;;6309062;22;20845;-65
2021/05/26 03:50:15;;;;;;;15.60;11.70;;;8.70;99.90;;;;;;6311572;22;20423;-64
2021/05/26 03:52:43;;;;;;;14.20;11.60;;;8.70;99.90;;;;;;6311448;22;20474;-64
2021/05/26 04:35:09;;;;;;;10.53;9.40;;;8.70;99.90;;;;;;6306295;22;20443;-64
2021/05/26 04:37:35;;;;;;;11.10;8.67;;;8.70;99.90;;;;;;6311263;22;20449;-63
2021/05/26 04:40:02;;;;;;;12.60;9.10;;;8.70;99.90;;;;;;6311326;22;20428;-63
2021/05/26 04:42:29;;;;;;;11.43;7.87;;;8.60;99.90;;;;;;6311408;22;20416;-63
2021/05/26 04:44:55;;;;;;;8.27;7.50;;;8.60;99.90;;;;;;6311275;22;20416;-63
2021/05/26 04:47:22;;;;;;;10.10;7.40;;;8.60;99.90;;;;;;6310820;22;20689;-63
2021/05/26 04:49:49;;;;;;;9.23;7.97;;;8.70;99.90;;;;;;6311218;22;20427;-64
2021/05/26 04:52:16;;;;;;;11.63;7.60;;;8.70;99.90;;;;;;6311655;22;20416;-64
2021/05/26 04:54:43;;;;;;;9.63;7.77;;;8.70;99.90;;;;;;6311353;22;20448;-64
2021/05/26 04:57:12;;;;;;;10.80;7.60;;;8.70;99.90;;;;;;6311109;22;20420;-64
2021/05/26 04:59:39;;;;;;;8.47;7.57;;;8.60;99.90;;;;;;6310789;22;20412;-64
2021/05/26 05:02:05;;;;;;;8.20;7.37;;;8.60;99.90;;;;;;6310534;22;20416;-64
2021/05/26 05:04:35;;;;;;;8.60;7.80;;;8.70;99.90;;;;;;6306502;22;20416;-64
2021/05/26 05:07:01;;;;;;;11.13;6.90;;;8.70;99.90;;;;;;6310575;22;20449;-64
2021/05/26 05:09:28;;;;;;;7.20;6.30;;;8.70;99.90;;;;;;6310915;22;20900;-64
2021/05/26 05:11:55;;;;;;;7.97;5.57;;;8.60;99.90;;;;;;6311259;22;20413;-64
2021/05/26 05:14:21;;;;;;;8.27;6.70;;;8.70;99.90;;;;;;6311026;22;20464;-64
2021/05/26 05:16:48;;;;;;;11.70;6.70;;;8.70;99.90;;;;;;6310838;22;20710;-64
2021/05/26 05:19:15;;;;;;;7.37;6.27;;;8.70;99.90;;;;;;6310851;22;20387;-64
2021/05/26 05:21:41;;;;;;;10.63;7.13;;;8.70;99.90;;;;;;6311225;22;20420;-64
2021/05/26 05:24:08;;;;;;;9.53;5.80;;;8.70;99.90;;;;;;6310978;22;20441;-64
2021/05/26 05:26:36;;;;;;;8.53;5.83;;;8.80;99.90;;;;;;6311262;22;20398;-64
2021/05/26 05:29:02;;;;;;;6.40;5.67;;;8.90;99.90;;;;;;6311566;22;20760;-64
2021/05/26 05:31:31;;;;;;;6.17;5.50;;;8.90;99.90;;;;;;6310477;22;20416;-64
2021/05/26 05:33:57;;;;;;;7.63;5.67;;;9.00;99.90;;;;;;6310549;22;20425;-64
2021/05/26 05:36:24;;;;;;;7.97;6.33;;;8.90;99.90;;;;;;6310636;22;20447;-64
2021/05/26 05:38:51;;;;;;;6.13;5.53;;;8.90;99.90;;;;;;6311114;22;20458;-64
2021/05/26 05:41:17;;;;;;;8.70;5.60;;;8.90;99.90;;;;;;6310267;22;20710;-64
2021/05/26 05:43:45;;;;;;;6.60;5.90;;;8.80;99.90;;;;;;6311020;22;20420;-64
2021/05/26 05:46:11;;;;;;;6.20;5.60;;;9.00;99.90;;;;;;6310658;22;20692;-64
2021/05/26 05:48:38;;;;;;;6.53;5.30;;;9.00;99.90;;;;;;6309969;22;20449;-64
2021/05/26 05:51:05;;;;;;;6.33;5.60;;;8.90;99.90;;;;;;6310796;22;20424;-63
2021/05/26 05:53:32;;;;;;;7.60;6.63;;;9.00;99.90;;;;;;6310245;22;20427;-64
2021/05/26 05:56:01;;;;;;;6.27;5.00;;;9.10;99.90;;;;;;6310455;22;20480;-64
2021/05/26 05:58:28;;;;;;;11.73;6.13;;;9.10;99.90;;;;;;6310240;22;20531;-63
2021/05/26 06:00:56;;;;;;;7.03;5.67;;;9.20;99.90;;;;;;6310612;22;20716;-63
2021/05/26 06:03:22;;;;;;;4.87;4.13;;;9.40;99.90;;;;;;6306434;22;20478;-63
2021/05/26 06:05:49;;;;;;;6.87;4.23;;;9.50;99.90;;;;;;6309166;22;20413;-64
2021/05/26 06:08:16;;;;;;;4.90;4.27;;;9.70;99.90;;;;;;6309890;22;20473;-63
2021/05/26 06:10:42;;;;;;;4.80;4.27;;;9.70;99.90;;;;;;6310754;22;20423;-64
2021/05/26 06:13:10;;;;;;;4.60;3.90;;;9.80;99.90;;;;;;6310520;22;20474;-63
2021/05/26 06:15:36;;;;;;;4.37;3.90;;;9.80;99.90;;;;;;6310003;22;20448;-63
2021/05/26 06:18:05;;;;;;;5.17;4.47;;;9.90;99.90;;;;;;6309476;22;20478;-63
2021/05/26 06:20:31;;;;;;;3.57;3.27;;;10.00;99.90;;;;;;6309172;22;20416;-63
2021/05/26 06:22:59;;;;;;;4.47;4.07;;;10.10;99.90;;;;;;6308735;22;20420;-63
2021/05/26 06:25:26;;;;;;;4.13;3.80;;;10.30;99.90;;;;;;6310057;22;20416;-63
2021/05/26 06:27:55;;;;;;;4.50;4.00;;;10.40;99.90;;;;;;6310059;22;20416;-62
2021/05/26 06:30:23;;;;;;;3.47;3.10;;;10.40;99.90;;;;;;6310572;22;20806;-62
2021/05/26 06:32:49;;;;;;;4.37;3.93;;;10.70;99.90;;;;;;6310914;22;20416;-62
2021/05/26 06:35:19;;;;;;;5.07;4.20;;;10.80;99.90;;;;;;6309591;22;20510;-62
2021/05/26 06:37:48;;;;;;;3.80;3.50;;;10.80;99.90;;;;;;6309855;22;20417;-62
2021/05/26 06:40:16;;;;;;;4.33;3.73;;;10.80;99.90;;;;;;6310266;22;20426;-62
2021/05/26 06:42:44;;;;;;;4.07;3.47;;;10.70;99.90;;;;;;6309430;22;20466;-62
2021/05/26 06:45:14;;;;;;;3.37;2.67;;;10.70;99.90;;;;;;6309644;22;20762;-62
2021/05/26 06:47:41;;;;;;;3.70;3.07;;;10.50;99.90;;;;;;6310042;22;20452;-62
2021/05/26 06:50:09;;;;;;;6.10;3.27;;;10.60;99.90;;;;;;6310003;22;20442;-62
2021/05/26 06:52:37;;;;;;;4.27;3.50;;;10.40;99.90;;;;;;6310208;22;20723;-62
2021/05/26 06:55:04;;;;;;;5.80;3.70;;;10.30;99.90;;;;;;6309455;22;20873;-62
2021/05/26 06:57:31;;;;;;;3.60;3.30;;;10.30;99.90;;;;;;6309715;22;20473;-62
2021/05/26 06:59:57;;;;;;;5.80;3.50;;;10.50;99.90;;;;;;6309412;22;20420;-61
2021/05/26 07:02:24;;;;;;;6.63;4.37;;;10.50;99.90;;;;;;6309038;22;20420;-62
2021/05/26 07:04:50;;;;;;;4.90;4.10;;;10.40;99.90;;;;;;6306218;22;20760;-61
2021/05/26 07:07:17;;;;;;;4.47;4.07;;;10.50;99.90;;;;;;6310203;22;20416;-61
2021/05/26 07:09:44;;;;;;;4.93;4.53;;;10.40;99.90;;;;;;6309173;22;20488;-61
2021/05/26 07:12:17;;;;;;;8.37;4.10;;;10.40;99.90;;;;;;6310142;22;20412;-61
2021/05/26 07:14:44;;;;;;;4.53;4.00;;;10.50;99.90;;;;;;6309306;22;20542;-61
2021/05/26 07:17:11;;;;;;;5.20;4.37;;;10.60;99.90;;;;;;6310179;22;20423;-61
2021/05/26 07:19:40;;;;;;;5.90;3.80;;;10.90;99.90;;;;;;6309483;22;20898;-61
2021/05/26 07:22:07;;;;;;;4.40;4.10;;;11.20;99.90;;;;;;6310049;22;20453;-61
2021/05/26 07:24:33;;;;;;;5.33;3.90;;;11.40;99.90;;;;;;6309568;22;20416;-61
2021/05/26 07:27:02;;;;;;;4.60;4.20;;;11.50;99.90;;;;;;6309970;22;20416;-61
2021/05/26 07:29:31;;;;;;;3.90;3.60;;;11.50;99.90;;;;;;6309278;22;20473;-61
2021/05/26 07:32:03;;;;;;;4.37;4.07;;;11.70;99.90;;;;;;6309713;22;20842;-61
2021/05/26 07:34:30;;;;;;;7.63;4.27;;;11.70;99.90;;;;;;6308736;22;20447;-61
2021/05/26 07:36:56;;;;;;;4.57;4.17;;;11.40;99.90;;;;;;6309309;22;20477;-61
2021/05/26 07:39:24;;;;;;;4.33;3.60;;;11.20;99.90;;;;;;6310207;22;20411;-61
2021/05/26 07:41:54;;;;;;;4.77;4.37;;;11.10;99.90;;;;;;6309568;22;20439;-61
2021/05/26 07:44:24;;;;;;;5.07;4.50;;;11.10;99.90;;;;;;6309875;22;20416;-61
2021/05/26 07:46:53;;;;;;;5.27;4.77;;;11.20;99.90;;;;;;6309350;22;20858;-61
2021/05/26 07:49:23;;;;;;;6.70;5.67;;;11.20;99.90;;;;;;6309364;22;20423;-61
2021/05/26 07:51:55;;;;;;;5.33;4.80;;;11.10;99.90;;;;;;6309396;22;20629;-60
2021/05/26 07:54:22;;;;;;;5.70;5.30;;;11.00;99.90;;;;;;6310205;22;20431;-60
2021/05/26 07:56:49;;;;;;;7.60;5.60;;;10.80;99.90;;;;;;6309395;22;20431;-60
2021/05/26 07:59:18;;;;;;;5.63;4.90;;;11.00;99.90;;;;;;6309825;22;20860;-60
2021/05/26 08:01:46;;;;;;;6.57;5.97;;;11.00;99.90;;;;;;6309300;22;20416;-60
2021/05/26 08:04:12;;;;;;;7.47;5.37;;;11.10;99.90;;;;;;6305226;22;20697;-60
2021/05/26 08:06:42;;;;;;;8.03;6.40;;;11.00;99.90;;;;;;6309223;22;20420;-60
2021/05/26 08:09:11;;;;;;;5.93;5.43;;;10.90;99.90;;;;;;6309680;22;20849;-60
2021/05/26 08:11:37;;;;;;;5.67;5.27;;;10.80;99.90;;;;;;6309356;22;20420;-60
2021/05/26 08:14:04;;;;;;;5.97;5.40;;;10.60;99.90;;;;;;6309215;22;20540;-60
2021/05/26 08:16:35;;;;;;;6.30;5.90;;;10.70;99.90;;;;;;6309202;22;20427;-60
2021/05/26 08:19:03;;;;;;;9.23;7.27;;;10.90;99.90;;;;;;6308723;22;20424;-60
2021/05/26 08:21:29;;;;;;;7.23;6.53;;;11.10;99.90;;;;;;6310196;22;20419;-60
2021/05/26 08:23:56;;;;;;;6.73;6.13;;;11.10;99.90;;;;;;6310011;22;20708;-60
2021/05/26 08:26:23;;;;;;;7.33;6.63;;;10.90;99.90;;;;;;6309521;22;20416;-60
2021/05/26 08:28:53;;;;;;;7.27;6.60;;;10.70;99.90;;;;;;6309738;22;20416;-62
2021/05/26 08:31:20;;;;;;;8.80;7.60;;;10.60;99.90;;;;;;6309411;22;20474;-60
2021/05/26 08:33:49;;;;;;;7.77;7.07;;;10.50;99.90;;;;;;6308918;22;20977;-60
2021/05/26 08:36:16;;;;;;;7.30;6.70;;;10.50;99.90;;;;;;6310785;22;20797;-60
2021/05/26 08:38:43;;;;;;;8.17;7.47;;;10.40;99.90;;;;;;6311155;22;20481;-60
2021/05/26 08:41:11;;;;;;;7.50;6.90;;;10.40;99.90;;;;;;6310898;22;20412;-60
2021/05/26 08:43:39;;;;;;;7.20;6.50;;;10.40;99.90;;;;;;6311576;22;20419;-60
2021/05/26 08:46:06;;;;;;;6.70;6.07;;;10.40;99.90;;;;;;6311401;22;20465;-60
2021/05/26 08:48:34;;;;;;;7.33;6.63;;;10.50;99.90;;;;;;6310690;22;20420;-60
2021/05/26 08:51:02;;;;;;;8.03;7.23;;;10.70;99.90;;;;;;6310765;22;20451;-60
2021/05/26 08:53:29;;;;;;;6.77;6.27;;;11.20;99.90;;;;;;6311309;22;20416;-60
2021/05/26 08:55:56;;;;;;;8.53;7.80;;;11.60;99.90;;;;;;6310296;22;20448;-61
2021/05/26 08:58:22;;;;;;;6.83;6.30;;;12.30;99.90;;;;;;6310800;22;20420;-61
2021/05/26 09:00:49;;;;;;;6.27;5.77;;;13.00;99.90;;;;;;6310513;22;20420;-61
2021/05/26 09:03:17;;;;;;;6.23;5.57;;;13.40;99.90;;;;;;6306955;22;20456;-61
2021/05/26 09:05:51;;;;;;;4.30;3.93;;;13.40;99.90;;;;;;6309151;22;20416;-61
2021/05/26 09:08:19;;;;;;;5.20;4.80;;;13.50;99.90;;;;;;6311245;22;20415;-61
2021/05/26 09:10:51;;;;;;;5.07;4.67;;;13.50;99.90;;;;;;6310794;22;20419;-61
2021/05/26 09:13:32;;;;;;;6.40;5.93;;;13.50;99.90;;;;;;6310891;22;20733;-61
2021/05/26 09:16:00;;;;;;;9.03;5.90;;;13.70;99.90;;;;;;6310013;22;20904;-61
2021/05/26 09:18:26;;;;;;;7.03;6.13;;;13.90;99.90;;;;;;6310545;22;20416;-61
2021/05/26 09:20:56;;;;;;;6.57;5.10;;;14.60;99.90;;;;;;6310302;22;20933;-61
2021/05/26 09:23:30;;;;;;;5.00;4.60;;;14.80;99.90;;;;;;6310561;22;20758;-61
2021/05/26 09:25:59;;;;;;;4.97;4.60;;;15.20;99.90;;;;;;6310651;22;20749;-61
2021/05/26 09:28:31;;;;;;;5.57;5.07;;;15.10;99.90;;;;;;6310313;22;20712;-61
2021/05/26 09:31:01;;;;;;;5.90;5.30;;;15.10;99.90;;;;;;6309453;22;20420;-61
2021/05/26 09:33:37;;;;;;;3.87;3.57;;;15.30;99.90;;;;;;6310269;22;20751;-61
2021/05/26 09:36:27;;;;;;;4.80;4.30;;;15.30;99.90;;;;;;6310367;22;20426;-61
2021/05/26 09:38:56;;;;;;;4.37;4.00;;;14.90;99.90;;;;;;6310699;22;20423;-61
2021/05/26 09:41:25;;;;;;;4.30;3.80;;;14.40;99.90;;;;;;6309784;22;20474;-61
2021/05/26 09:43:53;;;;;;;3.40;3.10;;;14.00;99.90;;;;;;6310341;22;20416;-61
2021/05/26 09:46:38;;;;;;;6.20;5.03;;;13.90;99.90;;;;;;6309560;22;20416;-61
2021/05/26 09:49:07;;;;;;;3.97;3.73;;;13.80;99.90;;;;;;6310802;22;20416;-61
2021/05/26 09:51:36;;;;;;;4.13;3.73;;;13.70;99.90;;;;;;6310000;22;20493;-61
2021/05/26 09:54:16;;;;;;;3.73;3.43;;;13.60;99.90;;;;;;6310743;22;20427;-61
2021/05/26 09:56:46;;;;;;;4.40;4.00;;;13.80;99.90;;;;;;6309486;22;20448;-61
2021/05/26 09:59:13;;;;;;;4.50;4.20;;;13.60;99.90;;;;;;6310919;22;20837;-61
2021/05/26 10:01:40;;;;;;;4.70;3.80;;;13.60;99.90;;;;;;6310557;22;20395;-60
2021/05/26 10:04:10;;;;;;;10.63;4.47;;;13.50;99.90;;;;;;6305352;22;20872;-60
2021/05/26 10:06:41;;;;;;;3.50;3.30;;;13.50;99.90;;;;;;6310017;22;20421;-60
2021/05/26 10:09:13;;;;;;;3.93;3.63;;;13.60;99.90;;;;;;6309979;22;20431;-60
2021/05/26 10:11:40;;;;;;;4.20;3.90;;;14.00;99.90;;;;;;6309545;22;20570;-60
2021/05/26 10:14:09;;;;;;;3.87;3.57;;;14.30;99.90;;;;;;6309600;22;20412;-59
2021/05/26 10:16:40;;;;;;;3.50;3.07;;;14.60;99.90;;;;;;6309383;22;20448;-57
2021/05/26 10:19:07;;;;;;;3.60;3.30;;;14.80;99.90;;;;;;6310327;22;20416;-58
2021/05/26 10:21:34;;;;;;;4.40;3.63;;;15.10;99.90;;;;;;6310551;22;20769;-57
2021/05/26 10:24:05;;;;;;;5.17;3.10;;;15.10;99.90;;;;;;6310424;22;20416;-56
2021/05/26 10:26:56;;;;;;;3.30;3.10;;;14.80;99.90;;;;;;6310269;22;20383;-59
2021/05/26 10:29:38;;;;;;;3.07;2.77;;;14.10;99.90;;;;;;6308962;22;20427;-58
2021/05/26 10:32:07;;;;;;;3.30;3.07;;;13.40;99.90;;;;;;6310126;22;20429;-58
2021/05/26 10:35:07;;;;;;;3.00;2.80;;;13.10;99.90;;;;;;6309625;22;20868;-57
2021/05/26 10:37:40;;;;;;;3.20;2.90;;;12.70;99.90;;;;;;6185632;23;20415;-55
2021/05/26 10:40:40;;;;;;;2.60;2.40;;;12.50;99.90;;;;;;6185498;23;20927;-58
2021/05/26 10:43:29;;;;;;;3.17;2.97;;;12.50;99.90;;;;;;6274412;22;20513;-59
2021/05/26 10:46:01;;;;;;;3.97;3.60;;;12.70;99.90;;;;;;6310276;22;20412;-58
2021/05/26 10:48:54;;;;;;;3.70;3.40;;;13.00;99.90;;;;;;6309982;22;20938;-58
2021/05/26 10:51:41;;;;;;;3.70;2.97;;;13.50;99.90;;;;;;6297954;22;20428;-58
2021/05/26 10:54:08;;;;;;;2.90;2.70;;;13.70;99.90;;;;;;6309399;22;20416;-56
2021/05/26 10:56:36;;;;;;;4.10;2.70;;;14.00;99.90;;;;;;6309298;22;20447;-54
2021/05/26 10:59:12;;;;;;;2.77;2.57;;;14.30;99.90;;;;;;6308492;22;20411;-55
2021/05/26 11:02:12;;;;;;;2.93;2.73;;;15.10;99.90;;;;;;6310334;22;20420;-55
2021/05/26 11:04:40;;;;;;;2.37;2.27;;;15.30;99.90;;;;;;6304896;22;20423;-51
2021/05/26 11:07:20;;;;;;;3.30;2.63;;;15.80;99.90;;;;;;6310381;22;20902;-58
2021/05/26 11:10:00;;;;;;;3.00;2.80;;;16.40;99.80;;;;;;6310010;22;20421;-55
2021/05/26 11:12:27;;;;;;;3.20;2.80;;;16.40;95.90;;;;;;6309964;22;20783;-54
2021/05/26 11:14:55;;;;;;;3.10;2.80;;;16.00;97.60;;;;;;6310361;22;20455;-55
2021/05/26 11:17:33;;;;;;;4.77;2.53;;;15.90;98.30;;;;;;6310414;22;20439;-58
2021/05/26 11:20:28;;;;;;;2.70;2.50;;;15.40;97.80;;;;;;6309394;22;20861;-58
2021/05/26 11:22:54;;;;;;;3.60;3.30;;;14.90;99.90;;;;;;6309254;22;20481;-56
2021/05/26 11:25:21;;;;;;;3.10;2.90;;;14.70;99.90;;;;;;6309257;22;20477;-55
2021/05/26 11:27:52;;;;;;;3.87;3.33;;;14.70;99.90;;;;;;6309884;22;20416;-54
2021/05/26 11:30:25;;;;;;;3.23;2.50;;;14.80;99.90;;;;;;6309704;22;20690;-51
2021/05/26 11:33:01;;;;;;;3.30;3.00;;;14.40;99.90;;;;;;6309519;22;20523;-56
2021/05/26 11:35:28;;;;;;;2.90;2.70;;;14.50;99.90;;;;;;6278215;22;20449;-49
2021/05/26 11:37:55;;;;;;;2.73;2.43;;;14.50;99.90;;;;;;6277591;22;20474;-56
2021/05/26 11:40:28;;;;;;;3.03;2.70;;;14.50;99.90;;;;;;6278525;22;20432;-52
2021/05/26 11:42:57;;;;;;;2.90;2.70;;;14.60;99.90;;;;;;6278013;22;20421;-53
2021/05/26 11:45:24;;;;;;;2.47;2.20;;;15.10;99.90;;;;;;6278010;22;20453;-52
2021/05/26 11:47:58;;;;;;;3.07;2.87;;;15.20;99.90;;;;;;6278763;22;20825;-56
2021/05/26 11:50:30;;;;;;;3.30;3.00;;;14.90;99.90;;;;;;6277526;22;20420;-55
2021/05/26 11:53:14;;;;;;;2.40;2.20;;;14.70;99.90;;;;;;6279169;22;20748;-56
2021/05/26 11:55:47;;;;;;;3.40;3.10;;;14.40;99.90;;;;;;6278157;22;20453;-53
2021/05/26 11:58:27;;;;;;;2.63;2.43;;;14.20;99.90;;;;;;6278337;22;20695;-54
2021/05/26 12:01:01;;;;;;;29.63;7.30;;;14.00;99.90;;;;;;6278386;22;20727;-52
2021/05/26 12:03:33;;;;;;;3.40;2.40;;;13.90;99.90;;;;;;6274233;22;20452;-54
2021/05/26 12:06:01;;;;;;;2.70;2.50;;;13.70;99.90;;;;;;6277673;22;20776;-55
2021/05/26 12:08:29;;;;;;;2.43;2.23;;;14.00;99.90;;;;;;6277740;22;20515;-56
2021/05/26 12:10:57;;;;;;;4.33;3.20;;;14.30;99.90;;;;;;6280048;22;20417;-54
2021/05/26 12:13:25;;;;;;;7.07;3.37;;;14.50;99.90;;;;;;6280710;22;20860;-56
2021/05/26 12:15:53;;;;;;;2.20;2.00;;;15.00;99.90;;;;;;6279956;22;20491;-58
2021/05/26 12:18:20;;;;;;;5.80;2.50;;;16.30;99.90;;;;;;6280322;22;20947;-58
2021/05/26 12:20:51;;;;;;;2.10;1.90;;;17.30;95.40;;;;;;6279761;22;20417;-55
2021/05/26 12:23:31;;;;;;;4.10;2.60;;;17.30;92.40;;;;;;6280778;22;20420;-57
2021/05/26 12:25:58;;;;;;;2.20;2.10;;;17.30;92.90;;;;;;6279871;22;20416;-57
2021/05/26 12:28:28;;;;;;;29.53;7.20;;;17.30;91.90;;;;;;6280111;22;20416;-55
2021/05/26 12:30:55;;;;;;;3.67;2.03;;;16.80;93.00;;;;;;6280136;22;20737;-56
2021/05/26 12:33:24;;;;;;;2.43;2.23;;;16.50;95.30;;;;;;6284347;22;20421;-56
2021/05/26 12:36:03;;;;;;;2.83;2.63;;;16.40;95.80;;;;;;6308618;22;20426;-58
2021/05/26 12:38:34;;;;;;;3.17;2.83;;;16.20;98.20;;;;;;6308982;22;20469;-56
2021/05/26 12:41:23;;;;;;;3.10;2.10;;;16.70;97.10;;;;;;6310448;22;20420;-51
2021/05/26 12:43:52;;;;;;;2.37;2.17;;;17.60;97.60;;;;;;6311364;22;20715;-57
2021/05/26 12:46:41;;;;;;;2.97;2.33;;;18.30;86.90;;;;;;6311063;22;20845;-54
2021/05/26 12:49:28;;;;;;;3.93;2.83;;;17.80;84.10;;;;;;6311018;22;20415;-52
2021/05/26 12:51:57;;;;;;;2.73;2.53;;;18.40;88.70;;;;;;6311150;22;20419;-58
2021/05/26 12:54:24;;;;;;;3.13;2.93;;;18.80;80.40;;;;;;6311345;22;20703;-55
2021/05/26 12:57:06;;;;;;;2.80;2.60;;;18.80;77.20;;;;;;6310533;22;20912;-56
2021/05/26 12:59:40;;;;;;;2.70;2.50;;;17.80;78.10;;;;;;6311062;22;20420;-56
2021/05/26 13:02:08;;;;;;;2.70;2.47;;;16.90;88.70;;;;;;6310719;22;20422;-54
2021/05/26 13:04:44;;;;;;;3.17;2.87;;;16.50;92.30;;;;;;6306374;22;20454;-54
2021/05/26 13:07:27;;;;;;;3.03;2.83;;;16.20;95.50;;;;;;6309785;22;20411;-52
2021/05/26 13:49:00;;;;;;;4.40;3.47;;;16.80;99.90;;;;;;6277446;22;20410;-63
2021/05/26 13:51:27;;;;;;;3.23;2.80;;;17.30;99.90;;;;;;6277861;22;20447;-63
2021/05/26 13:53:54;;;;;;;4.43;3.60;;;17.80;99.90;;;;;;6279552;22;20418;-62
2021/05/26 13:56:26;;;;;;;3.10;2.90;;;18.30;99.90;;;;;;6279299;22;20453;-62
2021/05/26 13:58:54;;;;;;;4.70;3.30;;;18.10;99.90;;;;;;6279643;22;20880;-62
2021/05/26 15:15:14;;;;;;;8.73;7.93;;;12.70;99.90;;;;;;6302686;22;20452;-63
2021/05/26 15:52:10;;;;;;;7.60;6.90;;;15.40;99.90;;;;;;6296405;22;20450;-63
2021/05/26 15:54:37;;;;;;;8.53;7.87;;;14.50;99.90;;;;;;6307930;22;20420;-63
2021/05/26 15:57:04;;;;;;;10.77;9.67;;;13.70;99.90;;;;;;6309493;22;20483;-63
2021/05/26 16:33:47;;;;;;;7.80;7.07;;;12.70;99.90;;;;;;6295557;22;20456;-62
2021/05/26 16:36:14;;;;;;;7.10;6.27;;;12.60;99.90;;;;;;6309882;22;20456;-62
2021/05/26 16:38:42;;;;;;;7.60;6.43;;;12.50;99.90;;;;;;6308843;22;20566;-62
2021/05/26 16:41:09;;;;;;;6.40;5.80;;;12.40;99.90;;;;;;6308689;22;20420;-62
2021/05/26 16:43:38;;;;;;;7.77;6.70;;;12.30;99.90;;;;;;6308800;22;20744;-62
2021/05/26 16:46:05;;;;;;;6.87;6.27;;;12.30;99.90;;;;;;6308524;22;20412;-62
2021/05/26 16:48:32;;;;;;;7.63;6.30;;;12.20;99.90;;;;;;6308294;22;20861;-62
2021/05/26 16:50:59;;;;;;;6.33;5.73;;;12.10;99.90;;;;;;6308800;22;20420;-62
2021/05/26 16:53:25;;;;;;;8.73;5.90;;;12.20;99.90;;;;;;6309166;22;20497;-62
2021/05/26 16:55:53;;;;;;;6.30;5.70;;;12.50;99.90;;;;;;6309312;22;20444;-62
2021/05/26 16:58:19;;;;;;;5.77;5.37;;;12.50;99.90;;;;;;6311210;22;20427;-62
2021/05/26 17:00:47;;;;;;;6.30;5.70;;;12.30;99.90;;;;;;6310333;22;20469;-62
2021/05/26 17:03:14;;;;;;;6.17;5.57;;;12.30;99.90;;;;;;6306701;22;20399;-62
2021/05/26 17:05:40;;;;;;;6.23;5.47;;;12.20;99.90;;;;;;6308437;22;20840;-62
2021/05/26 17:08:08;;;;;;;6.53;5.87;;;12.10;99.90;;;;;;6309046;22;20912;-62
2021/05/26 17:10:36;;;;;;;7.07;5.63;;;12.00;99.90;;;;;;6309042;22;20812;-62
2021/05/26 17:13:03;;;;;;;7.00;6.40;;;12.00;99.90;;;;;;6309841;22;20853;-62
2021/05/26 17:15:34;;;;;;;7.43;6.70;;;12.00;99.90;;;;;;6310200;22;20419;-62
2021/05/26 17:18:00;;;;;;;9.77;6.87;;;12.10;99.90;;;;;;6310415;22;20864;-62
2021/05/26 17:20:28;;;;;;;7.20;6.53;;;12.00;99.90;;;;;;6310554;22;20416;-62